sensor_id;sensor_type;location;lat;lon;timestamp;P1;durP1;ratioP1;P2;durP2;ratioP2
26536;SDS011;14204;51.262;5.488;2024-02-26T00:00:32;2.53;;;2.15;;
26536;SDS011;14204;51.262;5.488;2024-02-26T00:03:00;2.47;;;2.15;;
26536;SDS011;14204;51.262;5.488;2024-02-26T00:05:26;2.40;;;1.80;;
26536;SDS011;14204;51.262;5.488;2024-02-26T00:07:52;5.07;;;1.90;;
26536;SDS011;14204;51.262;5.488;2024-02-26T00:10:17;3.70;;;2.10;;
26536;SDS011;14204;51.262;5.488;2024-02-26T00:12:43;3.28;;;2.30;;
26536;SDS011;14204;51.262;5.488;2024-02-26T00:15:10;5.00;;;2.38;;
26536;SDS011;14204;51.262;5.488;2024-02-26T00:17:36;3.75;;;1.95;;
26536;SDS011;14204;51.262;5.488;2024-02-26T00:20:02;3.72;;;2.50;;
26536;SDS011;14204;51.262;5.488;2024-02-26T00:22:35;3.80;;;2.67;;
26536;SDS011;14204;51.262;5.488;2024-02-26T00:25:01;3.60;;;2.40;;
26536;SDS011;14204;51.262;5.488;2024-02-26T00:27:27;2.30;;;1.88;;
26536;SDS011;14204;51.262;5.488;2024-02-26T00:29:52;5.35;;;2.88;;
26536;SDS011;14204;51.262;5.488;2024-02-26T00:32:18;2.70;;;2.10;;
26536;SDS011;14204;51.262;5.488;2024-02-26T00:34:44;3.47;;;2.30;;
26536;SDS011;14204;51.262;5.488;2024-02-26T00:37:09;3.90;;;2.20;;
26536;SDS011;14204;51.262;5.488;2024-02-26T00:39:35;2.72;;;2.35;;
26536;SDS011;14204;51.262;5.488;2024-02-26T00:42:01;3.13;;;2.22;;
26536;SDS011;14204;51.262;5.488;2024-02-26T00:44:26;3.72;;;2.00;;
26536;SDS011;14204;51.262;5.488;2024-02-26T00:46:52;5.10;;;2.88;;
26536;SDS011;14204;51.262;5.488;2024-02-26T00:49:18;2.85;;;2.17;;
26536;SDS011;14204;51.262;5.488;2024-02-26T00:51:44;4.97;;;2.47;;
26536;SDS011;14204;51.262;5.488;2024-02-26T00:54:09;2.50;;;2.10;;
26536;SDS011;14204;51.262;5.488;2024-02-26T00:56:35;4.60;;;2.47;;
26536;SDS011;14204;51.262;5.488;2024-02-26T00:59:01;3.40;;;2.03;;
26536;SDS011;14204;51.262;5.488;2024-02-26T01:01:26;3.42;;;2.17;;
26536;SDS011;14204;51.262;5.488;2024-02-26T01:03:52;4.43;;;2.42;;
26536;SDS011;14204;51.262;5.488;2024-02-26T01:06:18;4.40;;;2.75;;
26536;SDS011;14204;51.262;5.488;2024-02-26T01:08:43;4.00;;;2.38;;
26536;SDS011;14204;51.262;5.488;2024-02-26T01:11:09;3.17;;;2.28;;
26536;SDS011;14204;51.262;5.488;2024-02-26T01:13:35;3.60;;;2.13;;
26536;SDS011;14204;51.262;5.488;2024-02-26T01:16:00;3.67;;;2.28;;
26536;SDS011;14204;51.262;5.488;2024-02-26T01:18:26;4.57;;;2.50;;
26536;SDS011;14204;51.262;5.488;2024-02-26T01:20:52;3.92;;;2.25;;
26536;SDS011;14204;51.262;5.488;2024-02-26T01:23:19;6.07;;;3.10;;
26536;SDS011;14204;51.262;5.488;2024-02-26T01:25:45;4.20;;;2.55;;
26536;SDS011;14204;51.262;5.488;2024-02-26T01:28:11;2.20;;;2.00;;
26536;SDS011;14204;51.262;5.488;2024-02-26T01:30:37;3.83;;;2.80;;
26536;SDS011;14204;51.262;5.488;2024-02-26T01:33:03;4.53;;;2.80;;
26536;SDS011;14204;51.262;5.488;2024-02-26T01:35:28;3.97;;;2.45;;
26536;SDS011;14204;51.262;5.488;2024-02-26T01:37:55;3.08;;;2.63;;
26536;SDS011;14204;51.262;5.488;2024-02-26T01:40:21;9.20;;;2.75;;
26536;SDS011;14204;51.262;5.488;2024-02-26T01:42:47;6.80;;;3.20;;
26536;SDS011;14204;51.262;5.488;2024-02-26T01:45:16;4.20;;;3.28;;
26536;SDS011;14204;51.262;5.488;2024-02-26T01:47:50;4.13;;;2.70;;
26536;SDS011;14204;51.262;5.488;2024-02-26T01:50:17;4.30;;;2.40;;
26536;SDS011;14204;51.262;5.488;2024-02-26T01:52:44;9.18;;;2.88;;
26536;SDS011;14204;51.262;5.488;2024-02-26T01:55:14;5.97;;;2.83;;
26536;SDS011;14204;51.262;5.488;2024-02-26T01:57:42;3.47;;;2.88;;
26536;SDS011;14204;51.262;5.488;2024-02-26T02:00:09;5.45;;;3.17;;
26536;SDS011;14204;51.262;5.488;2024-02-26T02:02:35;4.13;;;2.70;;
26536;SDS011;14204;51.262;5.488;2024-02-26T02:05:01;7.60;;;3.13;;
26536;SDS011;14204;51.262;5.488;2024-02-26T02:07:28;6.47;;;3.22;;
26536;SDS011;14204;51.262;5.488;2024-02-26T02:09:55;6.78;;;3.30;;
26536;SDS011;14204;51.262;5.488;2024-02-26T02:12:21;4.88;;;3.17;;
26536;SDS011;14204;51.262;5.488;2024-02-26T02:14:47;5.47;;;3.53;;
26536;SDS011;14204;51.262;5.488;2024-02-26T02:17:13;7.75;;;3.45;;
26536;SDS011;14204;51.262;5.488;2024-02-26T02:19:38;5.65;;;3.30;;
26536;SDS011;14204;51.262;5.488;2024-02-26T02:22:04;7.47;;;3.17;;
26536;SDS011;14204;51.262;5.488;2024-02-26T02:24:30;6.93;;;3.15;;
26536;SDS011;14204;51.262;5.488;2024-02-26T02:26:55;8.02;;;3.47;;
26536;SDS011;14204;51.262;5.488;2024-02-26T02:29:21;3.83;;;3.00;;
26536;SDS011;14204;51.262;5.488;2024-02-26T02:31:47;5.45;;;3.30;;
26536;SDS011;14204;51.262;5.488;2024-02-26T02:34:13;4.05;;;3.28;;
26536;SDS011;14204;51.262;5.488;2024-02-26T02:36:49;7.35;;;4.07;;
26536;SDS011;14204;51.262;5.488;2024-02-26T02:39:18;6.25;;;4.03;;
26536;SDS011;14204;51.262;5.488;2024-02-26T02:41:43;6.20;;;4.38;;
26536;SDS011;14204;51.262;5.488;2024-02-26T02:44:09;6.32;;;4.38;;
26536;SDS011;14204;51.262;5.488;2024-02-26T02:46:35;5.95;;;4.47;;
26536;SDS011;14204;51.262;5.488;2024-02-26T02:49:02;8.25;;;4.88;;
26536;SDS011;14204;51.262;5.488;2024-02-26T02:51:28;8.05;;;5.05;;
26536;SDS011;14204;51.262;5.488;2024-02-26T02:53:54;11.02;;;5.75;;
26536;SDS011;14204;51.262;5.488;2024-02-26T02:56:19;7.65;;;4.97;;
26536;SDS011;14204;51.262;5.488;2024-02-26T02:58:45;7.07;;;4.97;;
26536;SDS011;14204;51.262;5.488;2024-02-26T03:01:12;6.90;;;5.55;;
26536;SDS011;14204;51.262;5.488;2024-02-26T03:03:38;9.07;;;5.53;;
26536;SDS011;14204;51.262;5.488;2024-02-26T03:06:04;9.95;;;5.93;;
26536;SDS011;14204;51.262;5.488;2024-02-26T03:08:29;9.23;;;5.55;;
26536;SDS011;14204;51.262;5.488;2024-02-26T03:10:55;12.07;;;6.32;;
26536;SDS011;14204;51.262;5.488;2024-02-26T03:13:23;9.77;;;5.57;;
26536;SDS011;14204;51.262;5.488;2024-02-26T03:15:48;8.70;;;5.70;;
26536;SDS011;14204;51.262;5.488;2024-02-26T03:18:14;8.68;;;5.65;;
26536;SDS011;14204;51.262;5.488;2024-02-26T03:20:40;10.10;;;5.90;;
26536;SDS011;14204;51.262;5.488;2024-02-26T03:23:05;12.63;;;6.15;;
26536;SDS011;14204;51.262;5.488;2024-02-26T03:25:31;10.32;;;5.85;;
26536;SDS011;14204;51.262;5.488;2024-02-26T03:27:57;10.20;;;6.00;;
26536;SDS011;14204;51.262;5.488;2024-02-26T03:30:23;9.38;;;6.68;;
26536;SDS011;14204;51.262;5.488;2024-02-26T03:32:48;16.30;;;7.05;;
26536;SDS011;14204;51.262;5.488;2024-02-26T03:35:14;11.35;;;6.90;;
26536;SDS011;14204;51.262;5.488;2024-02-26T03:37:39;8.98;;;6.20;;
26536;SDS011;14204;51.262;5.488;2024-02-26T03:40:05;7.68;;;5.78;;
26536;SDS011;14204;51.262;5.488;2024-02-26T03:42:32;11.13;;;6.97;;
26536;SDS011;14204;51.262;5.488;2024-02-26T03:44:57;7.72;;;6.13;;
26536;SDS011;14204;51.262;5.488;2024-02-26T03:47:23;10.13;;;7.20;;
26536;SDS011;14204;51.262;5.488;2024-02-26T03:49:48;9.60;;;6.97;;
26536;SDS011;14204;51.262;5.488;2024-02-26T03:52:14;12.57;;;6.78;;
26536;SDS011;14204;51.262;5.488;2024-02-26T03:54:40;8.68;;;6.75;;
26536;SDS011;14204;51.262;5.488;2024-02-26T03:57:05;10.98;;;7.53;;
26536;SDS011;14204;51.262;5.488;2024-02-26T03:59:31;8.95;;;6.00;;
26536;SDS011;14204;51.262;5.488;2024-02-26T04:01:57;9.57;;;6.13;;
26536;SDS011;14204;51.262;5.488;2024-02-26T04:04:22;8.43;;;7.05;;
26536;SDS011;14204;51.262;5.488;2024-02-26T04:06:48;9.30;;;6.20;;
26536;SDS011;14204;51.262;5.488;2024-02-26T04:09:14;9.32;;;6.93;;
26536;SDS011;14204;51.262;5.488;2024-02-26T04:11:40;13.55;;;7.25;;
26536;SDS011;14204;51.262;5.488;2024-02-26T04:14:05;8.13;;;7.32;;
26536;SDS011;14204;51.262;5.488;2024-02-26T04:16:33;8.02;;;7.10;;
26536;SDS011;14204;51.262;5.488;2024-02-26T04:19:01;8.65;;;6.32;;
26536;SDS011;14204;51.262;5.488;2024-02-26T04:21:26;7.70;;;6.70;;
26536;SDS011;14204;51.262;5.488;2024-02-26T04:23:52;9.55;;;6.72;;
26536;SDS011;14204;51.262;5.488;2024-02-26T04:26:20;8.25;;;6.13;;
26536;SDS011;14204;51.262;5.488;2024-02-26T04:28:46;8.35;;;6.75;;
26536;SDS011;14204;51.262;5.488;2024-02-26T04:31:12;8.25;;;6.18;;
26536;SDS011;14204;51.262;5.488;2024-02-26T04:33:38;8.05;;;6.10;;
26536;SDS011;14204;51.262;5.488;2024-02-26T04:36:04;11.25;;;6.05;;
26536;SDS011;14204;51.262;5.488;2024-02-26T04:38:29;7.10;;;6.25;;
26536;SDS011;14204;51.262;5.488;2024-02-26T04:40:55;6.80;;;5.97;;
26536;SDS011;14204;51.262;5.488;2024-02-26T04:43:21;8.80;;;6.53;;
26536;SDS011;14204;51.262;5.488;2024-02-26T04:45:46;8.93;;;6.68;;
26536;SDS011;14204;51.262;5.488;2024-02-26T04:48:13;9.82;;;5.82;;
26536;SDS011;14204;51.262;5.488;2024-02-26T04:50:38;9.63;;;7.32;;
26536;SDS011;14204;51.262;5.488;2024-02-26T04:53:04;8.05;;;6.47;;
26536;SDS011;14204;51.262;5.488;2024-02-26T04:55:30;9.05;;;5.53;;
26536;SDS011;14204;51.262;5.488;2024-02-26T04:57:55;9.63;;;5.68;;
26536;SDS011;14204;51.262;5.488;2024-02-26T05:00:21;6.75;;;6.00;;
26536;SDS011;14204;51.262;5.488;2024-02-26T05:02:47;8.20;;;5.88;;
26536;SDS011;14204;51.262;5.488;2024-02-26T05:05:12;7.63;;;5.82;;
26536;SDS011;14204;51.262;5.488;2024-02-26T05:07:41;6.22;;;5.05;;
26536;SDS011;14204;51.262;5.488;2024-02-26T05:10:08;9.38;;;6.40;;
26536;SDS011;14204;51.262;5.488;2024-02-26T05:12:34;6.45;;;5.70;;
26536;SDS011;14204;51.262;5.488;2024-02-26T05:15:01;7.82;;;5.80;;
26536;SDS011;14204;51.262;5.488;2024-02-26T05:17:27;7.78;;;5.97;;
26536;SDS011;14204;51.262;5.488;2024-02-26T05:19:53;6.35;;;5.43;;
26536;SDS011;14204;51.262;5.488;2024-02-26T05:22:19;6.55;;;5.75;;
26536;SDS011;14204;51.262;5.488;2024-02-26T05:24:44;6.50;;;5.78;;
26536;SDS011;14204;51.262;5.488;2024-02-26T05:27:10;5.78;;;5.10;;
26536;SDS011;14204;51.262;5.488;2024-02-26T05:29:37;7.10;;;5.82;;
26536;SDS011;14204;51.262;5.488;2024-02-26T05:32:03;7.05;;;5.53;;
26536;SDS011;14204;51.262;5.488;2024-02-26T05:34:30;7.40;;;5.95;;
26536;SDS011;14204;51.262;5.488;2024-02-26T05:36:55;7.45;;;6.13;;
26536;SDS011;14204;51.262;5.488;2024-02-26T05:39:21;8.48;;;5.55;;
26536;SDS011;14204;51.262;5.488;2024-02-26T05:41:47;6.35;;;5.75;;
26536;SDS011;14204;51.262;5.488;2024-02-26T05:44:14;7.05;;;6.18;;
26536;SDS011;14204;51.262;5.488;2024-02-26T05:46:41;6.88;;;5.90;;
26536;SDS011;14204;51.262;5.488;2024-02-26T05:49:07;7.63;;;6.38;;
26536;SDS011;14204;51.262;5.488;2024-02-26T05:51:33;9.23;;;5.97;;
26536;SDS011;14204;51.262;5.488;2024-02-26T05:53:58;7.15;;;5.78;;
26536;SDS011;14204;51.262;5.488;2024-02-26T05:56:24;7.47;;;6.28;;
26536;SDS011;14204;51.262;5.488;2024-02-26T05:58:50;6.93;;;6.18;;
26536;SDS011;14204;51.262;5.488;2024-02-26T06:01:16;9.82;;;6.95;;
26536;SDS011;14204;51.262;5.488;2024-02-26T06:03:43;7.18;;;6.50;;
26536;SDS011;14204;51.262;5.488;2024-02-26T06:06:09;7.85;;;6.40;;
26536;SDS011;14204;51.262;5.488;2024-02-26T06:08:36;7.93;;;7.13;;
26536;SDS011;14204;51.262;5.488;2024-02-26T06:11:05;6.55;;;5.90;;
26536;SDS011;14204;51.262;5.488;2024-02-26T06:13:34;7.05;;;6.35;;
26536;SDS011;14204;51.262;5.488;2024-02-26T06:16:00;7.68;;;6.70;;
26536;SDS011;14204;51.262;5.488;2024-02-26T06:18:26;8.77;;;7.22;;
26536;SDS011;14204;51.262;5.488;2024-02-26T06:20:51;8.25;;;7.43;;
26536;SDS011;14204;51.262;5.488;2024-02-26T06:23:17;8.30;;;6.90;;
26536;SDS011;14204;51.262;5.488;2024-02-26T06:25:43;7.82;;;6.43;;
26536;SDS011;14204;51.262;5.488;2024-02-26T06:28:08;8.45;;;6.25;;
26536;SDS011;14204;51.262;5.488;2024-02-26T06:30:34;7.43;;;5.65;;
26536;SDS011;14204;51.262;5.488;2024-02-26T06:33:00;9.00;;;6.15;;
26536;SDS011;14204;51.262;5.488;2024-02-26T06:35:26;7.07;;;5.88;;
26536;SDS011;14204;51.262;5.488;2024-02-26T06:37:52;8.27;;;6.40;;
26536;SDS011;14204;51.262;5.488;2024-02-26T06:40:18;12.55;;;6.53;;
26536;SDS011;14204;51.262;5.488;2024-02-26T06:42:44;7.88;;;5.95;;
26536;SDS011;14204;51.262;5.488;2024-02-26T06:45:10;10.45;;;6.65;;
26536;SDS011;14204;51.262;5.488;2024-02-26T06:47:36;6.45;;;5.85;;
26536;SDS011;14204;51.262;5.488;2024-02-26T06:50:01;7.07;;;5.28;;
26536;SDS011;14204;51.262;5.488;2024-02-26T06:52:28;5.85;;;5.25;;
26536;SDS011;14204;51.262;5.488;2024-02-26T06:54:53;7.30;;;5.20;;
26536;SDS011;14204;51.262;5.488;2024-02-26T06:57:20;6.03;;;5.43;;
26536;SDS011;14204;51.262;5.488;2024-02-26T06:59:46;6.22;;;5.15;;
26536;SDS011;14204;51.262;5.488;2024-02-26T07:02:12;6.05;;;5.47;;
26536;SDS011;14204;51.262;5.488;2024-02-26T07:04:39;5.93;;;5.32;;
26536;SDS011;14204;51.262;5.488;2024-02-26T07:07:05;7.68;;;5.63;;
26536;SDS011;14204;51.262;5.488;2024-02-26T07:09:32;6.47;;;5.28;;
26536;SDS011;14204;51.262;5.488;2024-02-26T07:11:57;6.35;;;5.32;;
26536;SDS011;14204;51.262;5.488;2024-02-26T07:14:23;6.15;;;5.55;;
26536;SDS011;14204;51.262;5.488;2024-02-26T07:16:50;6.95;;;5.70;;
26536;SDS011;14204;51.262;5.488;2024-02-26T07:19:16;7.07;;;6.38;;
26536;SDS011;14204;51.262;5.488;2024-02-26T07:21:41;7.65;;;6.00;;
26536;SDS011;14204;51.262;5.488;2024-02-26T07:24:07;6.57;;;5.97;;
26536;SDS011;14204;51.262;5.488;2024-02-26T07:26:33;5.97;;;5.38;;
26536;SDS011;14204;51.262;5.488;2024-02-26T07:28:59;6.32;;;5.70;;
26536;SDS011;14204;51.262;5.488;2024-02-26T07:31:26;7.20;;;6.30;;
26536;SDS011;14204;51.262;5.488;2024-02-26T07:33:51;7.93;;;5.75;;
26536;SDS011;14204;51.262;5.488;2024-02-26T07:36:17;6.60;;;6.00;;
26536;SDS011;14204;51.262;5.488;2024-02-26T07:38:43;7.15;;;6.45;;
26536;SDS011;14204;51.262;5.488;2024-02-26T07:41:08;7.57;;;6.63;;
26536;SDS011;14204;51.262;5.488;2024-02-26T07:43:34;8.13;;;6.88;;
26536;SDS011;14204;51.262;5.488;2024-02-26T07:46:00;7.72;;;6.93;;
26536;SDS011;14204;51.262;5.488;2024-02-26T07:48:26;11.93;;;7.80;;
26536;SDS011;14204;51.262;5.488;2024-02-26T07:50:51;10.10;;;7.57;;
26536;SDS011;14204;51.262;5.488;2024-02-26T07:53:17;10.70;;;7.88;;
26536;SDS011;14204;51.262;5.488;2024-02-26T07:55:43;7.65;;;6.80;;
26536;SDS011;14204;51.262;5.488;2024-02-26T07:58:08;13.13;;;7.07;;
26536;SDS011;14204;51.262;5.488;2024-02-26T08:00:34;10.43;;;7.20;;
26536;SDS011;14204;51.262;5.488;2024-02-26T08:03:00;9.55;;;8.35;;
26536;SDS011;14204;51.262;5.488;2024-02-26T08:05:26;9.40;;;8.02;;
26536;SDS011;14204;51.262;5.488;2024-02-26T08:07:51;8.10;;;7.13;;
26536;SDS011;14204;51.262;5.488;2024-02-26T08:10:17;8.73;;;7.65;;
26536;SDS011;14204;51.262;5.488;2024-02-26T08:12:43;8.07;;;7.28;;
26536;SDS011;14204;51.262;5.488;2024-02-26T08:15:10;8.02;;;7.22;;
26536;SDS011;14204;51.262;5.488;2024-02-26T08:17:36;7.95;;;7.15;;
26536;SDS011;14204;51.262;5.488;2024-02-26T08:20:02;8.70;;;7.03;;
26536;SDS011;14204;51.262;5.488;2024-02-26T08:22:29;8.68;;;6.97;;
26536;SDS011;14204;51.262;5.488;2024-02-26T08:24:55;9.43;;;7.47;;
26536;SDS011;14204;51.262;5.488;2024-02-26T08:27:20;7.28;;;6.20;;
26536;SDS011;14204;51.262;5.488;2024-02-26T08:29:46;7.93;;;6.97;;
26536;SDS011;14204;51.262;5.488;2024-02-26T08:32:11;7.90;;;6.25;;
26536;SDS011;14204;51.262;5.488;2024-02-26T08:34:37;7.60;;;6.85;;
26536;SDS011;14204;51.262;5.488;2024-02-26T08:37:03;7.78;;;7.07;;
26536;SDS011;14204;51.262;5.488;2024-02-26T08:39:29;7.47;;;6.05;;
26536;SDS011;14204;51.262;5.488;2024-02-26T08:41:54;8.75;;;6.50;;
26536;SDS011;14204;51.262;5.488;2024-02-26T08:44:20;8.20;;;6.35;;
26536;SDS011;14204;51.262;5.488;2024-02-26T08:46:46;8.15;;;6.40;;
26536;SDS011;14204;51.262;5.488;2024-02-26T08:49:11;7.22;;;6.53;;
26536;SDS011;14204;51.262;5.488;2024-02-26T08:51:43;7.18;;;6.22;;
26536;SDS011;14204;51.262;5.488;2024-02-26T08:54:09;7.32;;;6.20;;
26536;SDS011;14204;51.262;5.488;2024-02-26T08:56:35;7.13;;;6.43;;
26536;SDS011;14204;51.262;5.488;2024-02-26T08:59:01;7.65;;;6.05;;
26536;SDS011;14204;51.262;5.488;2024-02-26T09:01:29;8.98;;;6.47;;
26536;SDS011;14204;51.262;5.488;2024-02-26T09:03:55;8.10;;;6.32;;
26536;SDS011;14204;51.262;5.488;2024-02-26T09:06:21;5.75;;;5.22;;
26536;SDS011;14204;51.262;5.488;2024-02-26T09:08:47;7.45;;;5.60;;
26536;SDS011;14204;51.262;5.488;2024-02-26T09:11:12;7.03;;;5.63;;
26536;SDS011;14204;51.262;5.488;2024-02-26T09:13:38;7.90;;;5.45;;
26536;SDS011;14204;51.262;5.488;2024-02-26T09:16:04;6.10;;;5.50;;
26536;SDS011;14204;51.262;5.488;2024-02-26T09:18:31;6.10;;;5.50;;
26536;SDS011;14204;51.262;5.488;2024-02-26T09:20:56;7.10;;;5.55;;
26536;SDS011;14204;51.262;5.488;2024-02-26T09:23:22;8.27;;;5.65;;
26536;SDS011;14204;51.262;5.488;2024-02-26T09:25:48;6.20;;;5.60;;
26536;SDS011;14204;51.262;5.488;2024-02-26T09:28:14;7.90;;;6.43;;
26536;SDS011;14204;51.262;5.488;2024-02-26T09:30:42;9.20;;;6.03;;
26536;SDS011;14204;51.262;5.488;2024-02-26T09:33:10;7.10;;;5.82;;
26536;SDS011;14204;51.262;5.488;2024-02-26T09:35:36;7.20;;;6.00;;
26536;SDS011;14204;51.262;5.488;2024-02-26T09:38:02;7.15;;;6.45;;
26536;SDS011;14204;51.262;5.488;2024-02-26T09:40:29;5.82;;;5.28;;
26536;SDS011;14204;51.262;5.488;2024-02-26T09:43:00;6.40;;;5.80;;
26536;SDS011;14204;51.262;5.488;2024-02-26T09:45:29;6.53;;;5.90;;
26536;SDS011;14204;51.262;5.488;2024-02-26T09:47:57;6.10;;;5.22;;
26536;SDS011;14204;51.262;5.488;2024-02-26T09:50:23;6.57;;;5.88;;
26536;SDS011;14204;51.262;5.488;2024-02-26T09:52:49;6.72;;;6.10;;
26536;SDS011;14204;51.262;5.488;2024-02-26T09:55:17;6.45;;;5.80;;
26536;SDS011;14204;51.262;5.488;2024-02-26T09:57:47;7.13;;;5.65;;
26536;SDS011;14204;51.262;5.488;2024-02-26T10:00:19;6.85;;;5.90;;
26536;SDS011;14204;51.262;5.488;2024-02-26T10:02:46;6.47;;;5.72;;
26536;SDS011;14204;51.262;5.488;2024-02-26T10:05:14;7.07;;;5.63;;
26536;SDS011;14204;51.262;5.488;2024-02-26T10:07:46;6.68;;;5.97;;
26536;SDS011;14204;51.262;5.488;2024-02-26T10:10:15;10.13;;;6.90;;
26536;SDS011;14204;51.262;5.488;2024-02-26T10:12:42;7.95;;;5.90;;
26536;SDS011;14204;51.262;5.488;2024-02-26T10:15:08;7.60;;;5.93;;
26536;SDS011;14204;51.262;5.488;2024-02-26T10:17:34;7.82;;;6.55;;
26536;SDS011;14204;51.262;5.488;2024-02-26T10:20:14;8.70;;;7.25;;
26536;SDS011;14204;51.262;5.488;2024-02-26T10:22:42;8.02;;;7.22;;
26536;SDS011;14204;51.262;5.488;2024-02-26T10:25:09;8.13;;;7.32;;
26536;SDS011;14204;51.262;5.488;2024-02-26T10:27:34;7.57;;;6.80;;
26536;SDS011;14204;51.262;5.488;2024-02-26T10:30:04;10.45;;;7.57;;
26536;SDS011;14204;51.262;5.488;2024-02-26T10:32:40;7.47;;;6.78;;
26536;SDS011;14204;51.262;5.488;2024-02-26T10:35:09;10.75;;;8.30;;
26536;SDS011;14204;51.262;5.488;2024-02-26T10:37:35;7.72;;;6.93;;
26536;SDS011;14204;51.262;5.488;2024-02-26T10:40:01;10.60;;;8.25;;
26536;SDS011;14204;51.262;5.488;2024-02-26T10:42:28;8.95;;;7.50;;
26536;SDS011;14204;51.262;5.488;2024-02-26T10:44:53;13.60;;;8.80;;
26536;SDS011;14204;51.262;5.488;2024-02-26T10:47:19;13.65;;;8.23;;
26536;SDS011;14204;51.262;5.488;2024-02-26T10:49:46;9.00;;;8.10;;
26536;SDS011;14204;51.262;5.488;2024-02-26T10:52:15;8.68;;;7.38;;
26536;SDS011;14204;51.262;5.488;2024-02-26T10:54:43;9.40;;;8.02;;
26536;SDS011;14204;51.262;5.488;2024-02-26T10:57:12;10.60;;;7.95;;
26536;SDS011;14204;51.262;5.488;2024-02-26T10:59:41;9.30;;;8.30;;
26536;SDS011;14204;51.262;5.488;2024-02-26T11:02:08;9.40;;;7.82;;
26536;SDS011;14204;51.262;5.488;2024-02-26T11:04:35;11.43;;;8.27;;
26536;SDS011;14204;51.262;5.488;2024-02-26T11:07:03;10.98;;;8.55;;
26536;SDS011;14204;51.262;5.488;2024-02-26T11:09:31;11.60;;;7.88;;
26536;SDS011;14204;51.262;5.488;2024-02-26T11:11:57;11.65;;;8.30;;
26536;SDS011;14204;51.262;5.488;2024-02-26T11:14:24;9.88;;;8.20;;
26536;SDS011;14204;51.262;5.488;2024-02-26T11:16:51;10.85;;;9.23;;
26536;SDS011;14204;51.262;5.488;2024-02-26T11:19:18;9.90;;;8.80;;
26536;SDS011;14204;51.262;5.488;2024-02-26T11:21:44;10.15;;;8.73;;
26536;SDS011;14204;51.262;5.488;2024-02-26T11:24:12;12.20;;;10.15;;
26536;SDS011;14204;51.262;5.488;2024-02-26T11:26:46;11.07;;;9.93;;
26536;SDS011;14204;51.262;5.488;2024-02-26T11:29:23;12.18;;;9.82;;
26536;SDS011;14204;51.262;5.488;2024-02-26T11:31:52;9.70;;;8.70;;
26536;SDS011;14204;51.262;5.488;2024-02-26T11:34:18;13.25;;;10.45;;
26536;SDS011;14204;51.262;5.488;2024-02-26T11:36:44;10.70;;;9.60;;
26536;SDS011;14204;51.262;5.488;2024-02-26T11:39:11;11.68;;;10.23;;
26536;SDS011;14204;51.262;5.488;2024-02-26T11:41:42;13.35;;;10.00;;
26536;SDS011;14204;51.262;5.488;2024-02-26T11:44:08;13.32;;;9.80;;
26536;SDS011;14204;51.262;5.488;2024-02-26T11:46:42;13.30;;;10.30;;
26536;SDS011;14204;51.262;5.488;2024-02-26T11:51:53;10.80;;;8.70;;
26536;SDS011;14204;51.262;5.488;2024-02-26T11:57:04;12.23;;;8.30;;
26536;SDS011;14204;51.262;5.488;2024-02-26T11:59:44;12.75;;;9.68;;
26536;SDS011;14204;51.262;5.488;2024-02-26T12:02:10;13.80;;;9.05;;
26536;SDS011;14204;51.262;5.488;2024-02-26T12:04:38;10.38;;;8.90;;
26536;SDS011;14204;51.262;5.488;2024-02-26T12:07:03;11.82;;;9.40;;
26536;SDS011;14204;51.262;5.488;2024-02-26T12:09:31;13.18;;;9.98;;
26536;SDS011;14204;51.262;5.488;2024-02-26T12:12:03;13.40;;;9.32;;
26536;SDS011;14204;51.262;5.488;2024-02-26T12:14:41;13.85;;;9.32;;
26536;SDS011;14204;51.262;5.488;2024-02-26T12:17:22;12.18;;;9.13;;
26536;SDS011;14204;51.262;5.488;2024-02-26T12:19:49;14.02;;;9.57;;
26536;SDS011;14204;51.262;5.488;2024-02-26T12:22:18;13.88;;;9.80;;
26536;SDS011;14204;51.262;5.488;2024-02-26T12:24:45;14.15;;;10.13;;
26536;SDS011;14204;51.262;5.488;2024-02-26T12:27:10;16.08;;;10.85;;
26536;SDS011;14204;51.262;5.488;2024-02-26T12:29:36;14.68;;;10.57;;
26536;SDS011;14204;51.262;5.488;2024-02-26T12:32:03;15.48;;;11.70;;
26536;SDS011;14204;51.262;5.488;2024-02-26T12:34:30;16.52;;;12.38;;
26536;SDS011;14204;51.262;5.488;2024-02-26T12:36:56;17.13;;;12.23;;
26536;SDS011;14204;51.262;5.488;2024-02-26T12:39:22;17.48;;;13.43;;
26536;SDS011;14204;51.262;5.488;2024-02-26T12:41:49;18.17;;;12.68;;
26536;SDS011;14204;51.262;5.488;2024-02-26T12:44:18;17.05;;;13.18;;
26536;SDS011;14204;51.262;5.488;2024-02-26T12:46:50;20.05;;;12.10;;
26536;SDS011;14204;51.262;5.488;2024-02-26T12:49:15;18.75;;;12.38;;
26536;SDS011;14204;51.262;5.488;2024-02-26T12:51:44;16.63;;;12.82;;
26536;SDS011;14204;51.262;5.488;2024-02-26T12:54:10;18.75;;;13.82;;
26536;SDS011;14204;51.262;5.488;2024-02-26T12:56:37;18.67;;;13.32;;
26536;SDS011;14204;51.262;5.488;2024-02-26T12:59:03;19.55;;;13.50;;
26536;SDS011;14204;51.262;5.488;2024-02-26T13:01:29;19.95;;;14.55;;
26536;SDS011;14204;51.262;5.488;2024-02-26T13:03:55;20.50;;;14.65;;
26536;SDS011;14204;51.262;5.488;2024-02-26T13:06:21;16.95;;;13.35;;
26536;SDS011;14204;51.262;5.488;2024-02-26T13:08:48;21.98;;;15.10;;
26536;SDS011;14204;51.262;5.488;2024-02-26T13:11:15;18.80;;;14.57;;
26536;SDS011;14204;51.262;5.488;2024-02-26T13:13:41;19.95;;;13.82;;
26536;SDS011;14204;51.262;5.488;2024-02-26T13:16:08;22.52;;;14.43;;
26536;SDS011;14204;51.262;5.488;2024-02-26T13:18:35;22.75;;;14.57;;
26536;SDS011;14204;51.262;5.488;2024-02-26T13:21:11;22.40;;;15.00;;
26536;SDS011;14204;51.262;5.488;2024-02-26T13:23:39;21.25;;;14.68;;
26536;SDS011;14204;51.262;5.488;2024-02-26T13:26:05;20.90;;;14.75;;
26536;SDS011;14204;51.262;5.488;2024-02-26T13:28:33;20.48;;;14.15;;
26536;SDS011;14204;51.262;5.488;2024-02-26T13:30:59;21.58;;;14.05;;
26536;SDS011;14204;51.262;5.488;2024-02-26T13:33:26;31.80;;;17.77;;
26536;SDS011;14204;51.262;5.488;2024-02-26T13:35:53;21.90;;;13.82;;
26536;SDS011;14204;51.262;5.488;2024-02-26T13:38:22;24.85;;;16.48;;
26536;SDS011;14204;51.262;5.488;2024-02-26T13:40:49;24.33;;;13.85;;
26536;SDS011;14204;51.262;5.488;2024-02-26T13:43:15;21.13;;;13.98;;
26536;SDS011;14204;51.262;5.488;2024-02-26T13:45:41;24.17;;;14.35;;
26536;SDS011;14204;51.262;5.488;2024-02-26T13:48:07;23.17;;;14.05;;
26536;SDS011;14204;51.262;5.488;2024-02-26T13:50:35;25.80;;;15.95;;
26536;SDS011;14204;51.262;5.488;2024-02-26T13:53:01;28.98;;;16.60;;
26536;SDS011;14204;51.262;5.488;2024-02-26T13:55:27;29.10;;;17.00;;
26536;SDS011;14204;51.262;5.488;2024-02-26T13:57:55;27.55;;;15.90;;
26536;SDS011;14204;51.262;5.488;2024-02-26T14:00:22;25.27;;;15.50;;
26536;SDS011;14204;51.262;5.488;2024-02-26T14:02:48;28.80;;;16.85;;
26536;SDS011;14204;51.262;5.488;2024-02-26T14:05:14;31.90;;;17.98;;
26536;SDS011;14204;51.262;5.488;2024-02-26T14:07:40;35.97;;;17.88;;
26536;SDS011;14204;51.262;5.488;2024-02-26T14:10:06;27.58;;;17.40;;
26536;SDS011;14204;51.262;5.488;2024-02-26T14:12:33;30.42;;;16.70;;
26536;SDS011;14204;51.262;5.488;2024-02-26T14:14:58;37.42;;;17.83;;
26536;SDS011;14204;51.262;5.488;2024-02-26T14:17:26;31.65;;;17.00;;
26536;SDS011;14204;51.262;5.488;2024-02-26T14:19:52;32.78;;;17.63;;
26536;SDS011;14204;51.262;5.488;2024-02-26T14:22:17;35.58;;;18.40;;
26536;SDS011;14204;51.262;5.488;2024-02-26T14:24:43;30.42;;;16.15;;
26536;SDS011;14204;51.262;5.488;2024-02-26T14:27:09;36.42;;;18.17;;
26536;SDS011;14204;51.262;5.488;2024-02-26T14:29:36;34.92;;;19.05;;
26536;SDS011;14204;51.262;5.488;2024-02-26T14:32:05;32.53;;;17.98;;
26536;SDS011;14204;51.262;5.488;2024-02-26T14:34:30;34.53;;;17.65;;
26536;SDS011;14204;51.262;5.488;2024-02-26T14:36:56;33.88;;;16.63;;
26536;SDS011;14204;51.262;5.488;2024-02-26T14:39:21;34.50;;;18.63;;
26536;SDS011;14204;51.262;5.488;2024-02-26T14:41:48;34.17;;;17.77;;